Date,TemperatureHighF,TemperatureAvgF,TemperatureLowF,DewpointHighF,DewpointAvgF,DewpointLowF,HumidityHigh,HumidityAvg,HumidityLow,PressureMaxIn,PressureMinIn,WindSpeedMaxMPH,WindSpeedAvgMPH,GustSpeedMaxMPH,PrecipitationSumIn
2013-2-1,71.0,52.7,37.0,37.4,32.3,27.1,70,48,25,30.22,30.13,7,4,9,0.00
2013-2-2,76.8,55.6,39.0,40.7,34.9,29.4,70,48,23,30.27,30.13,5,2,6,0.00
2013-2-3,68.0,58.2,51.3,39.5,35.6,32.5,56,43,28,30.15,29.74,7,3,9,0.00
2013-2-4,70.5,56.2,45.8,42.0,39.1,36.0,70,54,33,30.05,29.95,7,3,9,0.00
2013-2-5,74.0,57.7,43.4,46.0,40.9,36.9,79,55,32,30.03,29.93,9,3,11,0.00
2013-2-6,70.1,56.7,45.7,46.0,40.2,36.6,77,55,32,30.05,29.91,9,3,14,0.00
2013-2-7,72.1,56.6,43.1,44.4,39.3,34.7,79,54,29,30.13,29.96,5,3,7,0.00
2013-2-8,67.8,56.0,46.0,37.1,31.1,25.2,67,40,20,29.96,29.77,11,5,15,0.00
2013-2-9,50.9,44.0,36.2,37.3,30.4,25.5,87,60,40,30.02,29.78,11,4,16,0.24
2013-2-10,59.1,44.5,32.0,34.3,27.5,23.7,77,53,29,30.02,29.91,6,2,9,0.00
2013-2-11,39.3,36.0,33.4,34.6,29.2,24.7,91,76,59,30.13,29.93,6,2,9,0.00
2013-2-12,52.9,40.9,30.8,39.8,31.9,27.0,95,72,44,30.26,30.14,8,3,10,0.00
2013-2-13,61.4,46.1,32.3,31.5,27.1,22.9,71,49,27,30.19,30.07,7,4,10,0.00
2013-2-14,67.0,50.0,33.7,33.8,28.9,24.8,71,46,25,30.16,30.01,7,3,11,0.00
2013-2-15,72.6,56.1,44.2,34.5,27.7,18.9,52,35,19,30.26,30.11,9,4,11,0.00
2013-2-16,80.4,58.5,39.2,29.8,22.3,17.8,45,26,13,30.27,30.01,7,3,9,0.00
2013-2-17,73.0,56.0,38.9,29.2,21.9,18.1,47,28,13,30.01,29.85,10,4,13,0.00
2013-2-18,70.5,55.1,41.2,32.4,25.3,21.9,50,33,16,30.06,29.91,6,3,7,0.00
2013-2-19,70.7,56.4,43.1,30.8,23.7,17.9,47,30,15,29.93,29.69,14,6,19,0.00
2013-2-20,50.7,40.5,32.6,37.0,32.4,27.9,92,74,46,29.92,29.66,14,5,21,0.26
2013-2-21,51.4,40.9,31.9,42.8,35.0,30.4,96,80,57,30.02,29.91,6,2,8,0.37
2013-2-22,56.3,45.2,34.3,42.1,32.9,26.1,88,63,39,30.14,29.96,8,3,11,0.00
2013-2-23,66.4,48.5,33.5,35.8,29.0,25.8,75,50,24,30.13,29.83,7,2,9,0.00
2013-2-24,52.1,44.1,39.0,31.5,21.5,12.1,69,43,21,30.07,29.76,16,7,23,0.00
2013-2-25,60.0,46.5,32.0,26.6,20.4,14.8,56,36,24,30.20,30.02,7,4,12,0.00
2013-2-26,63.6,48.3,31.0,28.3,22.1,18.5,61,37,19,30.07,29.95,11,4,14,0.00
2013-2-27,66.7,52.1,41.6,20.2,14.7,9.3,35,22,14,30.21,30.07,10,6,14,0.00
2013-2-28,71.8,53.5,35.8,26.7,19.1,13.2,43,26,17,30.31,30.18,8,4,10,0.00